Airfield :
LOGIN :

Register | Disclaimer

   EN    FR    IT 

 










Legend :    VFR   Marginal VFR   IFR   Intensive IFR   Very Intensive IFR
Visi :
Ceiling :
>= 8 km
>= 3000ft
5 to 8 km
1000 to 3000 ft
1500m to 5 km
500 to 1000 ft
800 to 1500m
200 to 500 ft
< 800m
< 200 ft
Symbols :   Thunderstorms  Fog  Heavy snow  Heavy precipitations  Wind > 20 kt
SIGMETs :     Misc.  Thunderstorms  Icing  Turbulence  Mountain Waves  Volcanic Ashes







- Airport Elevation : 124 ft
- IATA code : RNS
- Download approach charts


LFRN - Rennes

CURRENT METAR :
  • 212200Z AUTO 34006KT CAVOK 14/11 Q1013

EXPIRED METARs :
  • 212130Z AUTO 35005KT CAVOK 15/12 Q1013
  • 212100Z AUTO 33004KT CAVOK 15/11 Q1013
  • 212030Z AUTO 32007KT CAVOK 16/12 Q1013
  • 212000Z AUTO 34006KT CAVOK 17/11 Q1013
  • 211930Z AUTO 36007KT CAVOK 18/11 Q1013

TAF TAF LFRN
Valid from the 21 at 12:00 until the 22 at 12:00 UTC


211100Z 2112/2212 02005KT 9999 SCT040
BECMG 2112/2114 35010KT
PROB30
TEMPO 2115/2119 5000 TSRA BKN050CB
BECMG 2122/2124 34005KT
PROB40
TEMPO 2203/2207 3000 BR BKN003
BECMG 2210/2212 36010KT
ATIS : +33 2 99 67 72 50
No reported NOTAMs for that airfield.



MET'MAP, your aeronautical weather chart ! - Copyright ORBIFLY December 2007 - Disclaimer

ORBIFLY MET'MAP TEAM :

Programming & Development : Alexandra Zaïnal
Concept & Development : Baudouin d'Aumeries
Co-Development & Prog : Marc-Olivier Méhu
Technical & hardware support : Manuel Goepfert

Contact : metmap@orbifly.com




SOURCES & CREDITS :

   NOAA